createdAt,value
2023-11-24T00:02:17.133Z,3.30
2023-11-24T00:05:07.891Z,3.30
2023-11-24T00:07:55.219Z,3.20
2023-11-24T00:10:45.014Z,3.30
2023-11-24T00:13:32.603Z,3.30
2023-11-24T00:16:23.132Z,3.60
2023-11-24T00:19:16.654Z,4.10
2023-11-24T00:22:04.524Z,4.60
2023-11-24T00:24:53.275Z,5.00
2023-11-24T00:27:40.813Z,5.30
2023-11-24T00:30:30.744Z,5.70
2023-11-24T00:33:20.082Z,6.10
2023-11-24T00:36:07.882Z,6.30
2023-11-24T00:38:56.050Z,6.50
2023-11-24T00:41:43.612Z,6.70
2023-11-24T00:44:31.022Z,6.90
2023-11-24T00:47:18.586Z,7.10
2023-11-24T00:50:07.340Z,7.20
2023-11-24T00:52:54.931Z,7.30
2023-11-24T00:55:42.323Z,7.40
2023-11-24T00:58:30.263Z,7.50
2023-11-24T01:01:18.653Z,7.50
2023-11-24T01:04:06.681Z,7.60
2023-11-24T01:06:54.225Z,7.70
2023-11-24T01:09:42.698Z,7.80
2023-11-24T01:12:30.160Z,7.90
2023-11-24T01:15:18.148Z,8.00
2023-11-24T01:18:08.303Z,8.00
2023-11-24T01:20:56.084Z,8.10
2023-11-24T01:23:43.527Z,8.20
2023-11-24T01:26:31.281Z,8.20
2023-11-24T01:29:18.601Z,8.30
2023-11-24T01:32:06.512Z,8.30
2023-11-24T01:34:54.039Z,8.40
2023-11-24T01:37:42.723Z,8.40
2023-11-24T01:40:31.194Z,8.40
2023-11-24T01:43:18.647Z,8.50
2023-11-24T01:46:06.779Z,8.50
2023-11-24T01:48:55.524Z,8.60
2023-11-24T01:51:43.609Z,8.60
2023-11-24T01:54:37.971Z,8.70
2023-11-24T01:57:25.760Z,8.70
2023-11-24T02:00:14.846Z,8.80
2023-11-24T02:03:02.508Z,8.80
2023-11-24T02:05:50.105Z,8.80
2023-11-24T02:08:37.533Z,8.90
2023-11-24T02:11:24.982Z,8.90
2023-11-24T02:14:12.636Z,9.00
2023-11-24T02:17:00.781Z,9.00
2023-11-24T02:19:48.138Z,9.00
2023-11-24T02:22:44.170Z,9.10
2023-11-24T02:25:31.598Z,9.10
2023-11-24T02:28:19.053Z,9.10
2023-11-24T02:31:08.414Z,9.10
2023-11-24T02:33:55.852Z,9.10
2023-11-24T02:36:44.012Z,9.10
2023-11-24T02:39:31.529Z,9.20
2023-11-24T02:42:19.117Z,9.20
2023-11-24T02:45:07.910Z,9.20
2023-11-24T02:47:55.341Z,9.20
2023-11-24T02:50:42.838Z,9.20
2023-11-24T02:53:30.471Z,9.30
2023-11-24T02:56:17.959Z,9.30
2023-11-24T02:59:05.769Z,9.30
2023-11-24T03:01:53.188Z,9.40
2023-11-24T03:04:40.604Z,9.40
2023-11-24T03:07:28.053Z,9.40
2023-11-24T03:10:15.422Z,9.40
2023-11-24T03:13:02.958Z,9.50
2023-11-24T03:15:50.790Z,9.50
2023-11-24T03:18:39.853Z,9.50
2023-11-24T03:21:27.320Z,9.60
2023-11-24T03:24:14.761Z,9.60
2023-11-24T03:27:02.133Z,9.60
2023-11-24T03:29:49.642Z,9.70
2023-11-24T03:32:37.106Z,9.70
2023-11-24T03:35:24.458Z,9.80
2023-11-24T03:38:12.377Z,9.80
2023-11-24T03:41:01.565Z,9.80
2023-11-24T03:43:48.960Z,9.90
2023-11-24T03:46:36.342Z,9.80
2023-11-24T03:49:23.719Z,9.90
2023-11-24T03:52:11.105Z,9.90
2023-11-24T03:54:58.515Z,9.90
2023-11-24T03:57:47.304Z,9.90
2023-11-24T04:00:34.851Z,9.90
2023-11-24T04:03:22.391Z,10.00
2023-11-24T04:06:09.794Z,10.00
2023-11-24T04:08:58.037Z,9.90
2023-11-24T04:11:45.301Z,9.90
2023-11-24T04:14:32.678Z,9.90
2023-11-24T04:17:20.132Z,9.90
2023-11-24T04:20:11.880Z,9.90
2023-11-24T04:23:02.069Z,9.90
2023-11-24T04:25:49.446Z,10.00
2023-11-24T04:28:36.826Z,10.00
2023-11-24T04:31:24.689Z,10.00
2023-11-24T04:34:12.236Z,10.00
2023-11-24T04:37:00.945Z,10.00
2023-11-24T04:39:48.479Z,10.00
2023-11-24T04:42:36.185Z,10.00
2023-11-24T04:45:23.623Z,10.10
2023-11-24T04:48:13.700Z,10.10
2023-11-24T04:51:01.343Z,10.10
2023-11-24T04:53:48.712Z,10.10
2023-11-24T04:56:36.089Z,10.10
2023-11-24T04:59:25.003Z,10.10
2023-11-24T05:02:13.490Z,10.10
2023-11-24T05:05:01.076Z,10.10
2023-11-24T05:07:48.741Z,10.10
2023-11-24T05:10:36.131Z,10.10
2023-11-24T05:13:23.729Z,10.10
2023-11-24T05:16:11.196Z,10.00
2023-11-24T05:18:58.691Z,10.00
2023-11-24T05:21:47.253Z,10.00
2023-11-24T05:24:34.967Z,10.00
2023-11-24T05:27:22.388Z,10.00
2023-11-24T05:30:12.338Z,10.00
2023-11-24T05:33:00.059Z,10.00
2023-11-24T05:35:47.452Z,10.00
2023-11-24T05:38:34.927Z,10.00
2023-11-24T05:41:22.970Z,10.00
2023-11-24T05:44:10.581Z,9.90
2023-11-24T05:46:58.045Z,9.80
2023-11-24T05:49:45.589Z,9.80
2023-11-24T05:52:36.293Z,9.80
2023-11-24T05:55:24.394Z,9.60
2023-11-24T05:58:13.171Z,9.50
2023-11-24T06:01:01.535Z,9.20
2023-11-24T06:03:49.123Z,9.00
2023-11-24T06:06:37.417Z,8.90
2023-11-24T06:09:25.055Z,8.70
2023-11-24T06:12:12.466Z,8.70
2023-11-24T06:14:59.825Z,8.50
2023-11-24T06:17:49.768Z,8.50
2023-11-24T06:20:37.214Z,8.30
2023-11-24T06:23:24.586Z,8.20
2023-11-24T06:26:12.297Z,8.10
2023-11-24T06:28:59.772Z,8.00
2023-11-24T06:31:47.178Z,8.00
2023-11-24T06:34:34.701Z,7.90
2023-11-24T06:37:22.555Z,7.90
2023-11-24T06:40:12.901Z,8.00
2023-11-24T06:43:02.130Z,8.00
2023-11-24T06:45:49.678Z,8.00
2023-11-24T06:48:37.115Z,8.00
2023-11-24T06:51:26.308Z,8.00
2023-11-24T06:54:15.273Z,8.00
2023-11-24T06:57:02.648Z,8.00
2023-11-24T06:59:50.023Z,8.00
2023-11-24T07:02:37.667Z,8.00
2023-11-24T07:05:25.116Z,7.90
2023-11-24T07:08:13.280Z,7.90
2023-11-24T07:11:00.553Z,7.90
2023-11-24T07:13:48.084Z,7.90
2023-11-24T07:16:35.516Z,7.80
2023-11-24T07:19:23.896Z,7.70
2023-11-24T07:22:11.577Z,7.80
2023-11-24T07:24:59.210Z,7.80
2023-11-24T07:27:47.250Z,7.90
2023-11-24T07:30:37.328Z,8.00
2023-11-24T07:33:24.770Z,8.00
2023-11-24T07:36:12.154Z,8.00
2023-11-24T07:39:00.353Z,7.90
2023-11-24T07:41:47.750Z,8.00
2023-11-24T07:44:35.086Z,8.00
2023-11-24T07:47:28.349Z,8.00
2023-11-24T07:50:17.285Z,8.00
2023-11-24T07:53:04.627Z,8.00
2023-11-24T07:55:51.948Z,8.00
2023-11-24T07:58:40.324Z,8.00
2023-11-24T08:01:28.117Z,8.10
2023-11-24T08:04:15.847Z,8.00
2023-11-24T08:07:03.244Z,7.90
2023-11-24T08:09:50.695Z,7.90
2023-11-24T08:12:39.340Z,7.90
2023-11-24T08:15:26.917Z,7.90
2023-11-24T08:18:14.578Z,7.90
2023-11-24T08:21:03.530Z,7.90
2023-11-24T08:23:51.117Z,7.90
2023-11-24T08:26:38.584Z,7.80
2023-11-24T08:29:27.543Z,7.70
2023-11-24T08:32:15.018Z,7.70
2023-11-24T08:35:02.505Z,7.70
2023-11-24T08:37:49.876Z,7.70
2023-11-24T08:40:37.195Z,7.70
2023-11-24T08:43:24.615Z,7.70
2023-11-24T08:46:13.644Z,7.70
2023-11-24T08:49:01.227Z,7.60
2023-11-24T08:51:48.973Z,7.60
2023-11-24T08:54:41.543Z,7.60
2023-11-24T08:57:29.114Z,7.60
2023-11-24T09:00:17.060Z,7.60
2023-11-24T09:03:06.605Z,7.50
2023-11-24T09:05:54.795Z,7.50
2023-11-24T09:08:44.853Z,7.60
2023-11-24T09:11:32.190Z,7.60
2023-11-24T09:14:19.625Z,7.70
2023-11-24T09:17:10.831Z,7.80
2023-11-24T09:19:58.463Z,7.90
2023-11-24T09:22:46.590Z,8.10
2023-11-24T09:25:33.985Z,8.30
2023-11-24T09:28:21.905Z,8.40
2023-11-24T09:31:14.249Z,8.40
2023-11-24T09:34:01.931Z,8.50
2023-11-24T09:36:49.389Z,8.60
2023-11-24T09:39:36.906Z,8.60
2023-11-24T09:42:24.785Z,8.60
2023-11-24T09:45:19.998Z,8.60
2023-11-24T09:48:09.608Z,8.60
2023-11-24T09:51:00.782Z,8.70
2023-11-24T09:53:48.351Z,8.70
2023-11-24T09:56:44.170Z,8.80
2023-11-24T09:59:31.534Z,8.90
2023-11-24T10:02:23.612Z,8.90
2023-11-24T10:05:18.196Z,9.00
2023-11-24T10:08:06.770Z,9.00
2023-11-24T10:10:54.171Z,9.00
2023-11-24T10:13:49.217Z,9.10
2023-11-24T10:16:42.996Z,9.30
2023-11-24T10:19:30.600Z,9.50
2023-11-24T10:22:20.711Z,9.50
2023-11-24T10:25:14.223Z,9.50
2023-11-24T10:28:06.438Z,9.50
2023-11-24T10:30:58.041Z,9.60
2023-11-24T10:33:45.882Z,9.60
2023-11-24T10:36:37.127Z,9.60
2023-11-24T10:39:27.182Z,9.60
2023-11-24T10:42:20.363Z,9.80
2023-11-24T10:45:11.531Z,9.90
2023-11-24T10:48:02.981Z,10.00
2023-11-24T10:51:18.963Z,10.00
2023-11-24T10:54:11.345Z,10.00
2023-11-24T10:57:00.119Z,10.30
2023-11-24T10:59:49.352Z,10.60
2023-11-24T11:02:42.507Z,10.80
2023-11-24T11:06:15.784Z,10.90
2023-11-24T11:09:20.994Z,10.90
2023-11-24T11:12:14.800Z,11.00
2023-11-24T11:15:05.472Z,10.90
2023-11-24T11:18:17.996Z,10.60
2023-11-24T11:21:17.946Z,10.50
2023-11-24T11:24:09.822Z,10.40
2023-11-24T11:26:59.157Z,10.40
2023-11-24T11:29:47.160Z,10.30
2023-11-24T11:32:34.549Z,10.20
2023-11-24T11:35:29.725Z,10.30
2023-11-24T11:38:36.828Z,10.50
2023-11-24T11:41:46.292Z,10.60
2023-11-24T11:44:40.270Z,10.70
2023-11-24T11:47:28.181Z,10.70
2023-11-24T11:50:22.609Z,10.60
2023-11-24T11:53:10.626Z,10.60
2023-11-24T11:55:59.871Z,10.60
2023-11-24T11:58:47.222Z,10.60
2023-11-24T12:01:36.877Z,10.60
2023-11-24T12:04:31.633Z,10.60
2023-11-24T12:07:20.964Z,10.50
2023-11-24T12:10:12.633Z,10.60
2023-11-24T12:13:05.942Z,10.60
2023-11-24T12:15:54.849Z,10.60
2023-11-24T12:18:42.695Z,10.60
2023-11-24T12:21:30.690Z,10.70
2023-11-24T12:24:21.810Z,10.80
2023-11-24T12:27:10.671Z,11.00
2023-11-24T12:30:05.192Z,11.00
2023-11-24T12:32:53.632Z,10.90
2023-11-24T12:35:50.580Z,10.80
2023-11-24T12:38:38.402Z,10.80
2023-11-24T12:41:25.759Z,10.70
2023-11-24T12:44:14.580Z,10.70
2023-11-24T12:47:13.888Z,10.60
2023-11-24T12:50:12.686Z,10.40
2023-11-24T12:53:02.650Z,10.30
2023-11-24T12:55:50.459Z,10.10
2023-11-24T12:58:37.871Z,10.10
2023-11-24T13:01:27.880Z,10.00
2023-11-24T13:04:16.131Z,10.00
2023-11-24T13:07:07.012Z,9.90
2023-11-24T13:09:56.293Z,9.90
2023-11-24T13:12:46.131Z,9.90
2023-11-24T13:15:33.839Z,9.90
2023-11-24T13:18:22.946Z,9.90
2023-11-24T13:21:10.651Z,9.90
2023-11-24T13:23:58.130Z,9.80
2023-11-24T13:26:49.571Z,9.80
2023-11-24T13:29:36.994Z,9.70
2023-11-24T13:32:24.414Z,9.60
2023-11-24T13:35:12.769Z,9.60
2023-11-24T13:38:00.337Z,9.60
2023-11-24T13:40:47.789Z,9.50
2023-11-24T13:43:36.387Z,9.40
2023-11-24T13:46:23.785Z,9.40
2023-11-24T13:49:15.209Z,9.40
2023-11-24T13:52:04.882Z,9.40
2023-11-24T13:54:52.433Z,9.40
2023-11-24T13:57:39.881Z,9.30
2023-11-24T14:00:28.028Z,9.30
2023-11-24T14:03:15.620Z,9.20
2023-11-24T14:06:03.200Z,9.20
2023-11-24T14:08:50.837Z,9.20
2023-11-24T14:11:39.511Z,9.20
2023-11-24T14:14:28.723Z,9.20
2023-11-24T14:17:16.349Z,9.10
2023-11-24T14:20:05.088Z,9.10
2023-11-24T14:22:55.423Z,9.10
2023-11-24T14:25:42.789Z,9.10
2023-11-24T14:28:30.238Z,9.20
2023-11-24T14:31:17.651Z,9.10
2023-11-24T14:34:09.830Z,9.00
2023-11-24T14:36:58.733Z,8.90
2023-11-24T14:39:49.147Z,8.80
2023-11-24T14:42:36.586Z,8.80
2023-11-24T14:45:26.410Z,8.70
2023-11-24T14:48:16.645Z,8.70
2023-11-24T14:51:04.497Z,8.70
2023-11-24T14:53:52.043Z,8.70
2023-11-24T14:56:42.845Z,8.60
2023-11-24T14:59:30.959Z,8.60
2023-11-24T15:02:18.410Z,8.50
2023-11-24T15:05:09.694Z,8.40
2023-11-24T15:07:58.541Z,8.40
2023-11-24T15:10:47.826Z,8.40
2023-11-24T15:13:35.427Z,8.30
2023-11-24T15:16:30.235Z,8.20
2023-11-24T15:19:17.850Z,8.30
2023-11-24T15:22:10.678Z,8.10
2023-11-24T15:24:59.595Z,8.10
2023-11-24T15:27:48.481Z,8.10
2023-11-24T15:30:37.421Z,8.00
2023-11-24T15:33:31.693Z,7.90
2023-11-24T15:36:20.079Z,7.90
2023-11-24T15:39:12.764Z,7.80
2023-11-24T15:42:00.960Z,7.70
2023-11-24T15:44:49.433Z,7.60
2023-11-24T15:47:39.288Z,7.40
2023-11-24T15:50:30.567Z,7.30
2023-11-24T15:53:23.079Z,7.30
2023-11-24T15:56:15.841Z,7.20
2023-11-24T15:59:08.478Z,7.10
2023-11-24T16:02:01.134Z,7.10
2023-11-24T16:04:57.363Z,7.10
2023-11-24T16:07:45.448Z,7.00
2023-11-24T16:10:37.329Z,7.00
2023-11-24T16:13:24.854Z,7.00
2023-11-24T16:16:13.991Z,6.90
2023-11-24T16:19:01.563Z,6.80
2023-11-24T16:21:48.961Z,6.80
2023-11-24T16:24:36.441Z,6.70
2023-11-24T16:27:23.870Z,6.60
2023-11-24T16:30:11.655Z,6.50
2023-11-24T16:32:59.618Z,6.50
2023-11-24T16:35:49.007Z,6.40
2023-11-24T16:38:38.299Z,6.40
2023-11-24T16:41:25.929Z,6.30
2023-11-24T16:44:13.416Z,6.30
2023-11-24T16:47:01.125Z,6.30
2023-11-24T16:49:48.558Z,6.30
2023-11-24T16:52:44.044Z,6.30
2023-11-24T16:55:33.596Z,6.30
2023-11-24T16:58:21.175Z,6.20
2023-11-24T17:01:09.273Z,6.20
2023-11-24T17:03:59.175Z,6.10
2023-11-24T17:06:51.331Z,6.00
2023-11-24T17:09:40.240Z,6.00
2023-11-24T17:12:27.610Z,5.90
2023-11-24T17:15:16.858Z,5.90
2023-11-24T17:18:07.579Z,5.80
2023-11-24T17:20:55.106Z,5.80
2023-11-24T17:23:43.720Z,5.80
2023-11-24T17:26:32.315Z,5.70
2023-11-24T17:29:19.697Z,5.70
2023-11-24T17:32:07.627Z,5.70
2023-11-24T17:34:56.483Z,5.60
2023-11-24T17:37:44.031Z,5.60
2023-11-24T17:40:32.145Z,5.60
2023-11-24T17:43:20.361Z,5.60
2023-11-24T17:46:08.859Z,5.60
2023-11-24T17:48:56.386Z,5.50
2023-11-24T17:51:43.899Z,5.50
2023-11-24T17:54:32.420Z,5.40
2023-11-24T17:57:20.525Z,5.40
2023-11-24T18:00:14.499Z,5.40
2023-11-24T18:03:02.009Z,5.40
2023-11-24T18:05:50.060Z,5.30
2023-11-24T18:08:37.564Z,5.30
2023-11-24T18:11:32.534Z,5.20
2023-11-24T18:14:23.022Z,5.20
2023-11-24T18:17:10.613Z,5.10
2023-11-24T18:19:57.980Z,5.10
2023-11-24T18:22:45.443Z,5.00
2023-11-24T18:25:33.692Z,5.00
2023-11-24T18:28:22.083Z,5.00
2023-11-24T18:31:09.719Z,5.00
2023-11-24T18:33:57.855Z,5.00
2023-11-24T18:36:45.197Z,5.00
2023-11-24T18:39:34.501Z,4.90
2023-11-24T18:42:21.880Z,5.00
2023-11-24T18:45:10.230Z,5.00
2023-11-24T18:47:57.650Z,5.00
2023-11-24T18:50:46.673Z,5.00
2023-11-24T18:53:34.136Z,5.00
2023-11-24T18:56:23.489Z,5.00
2023-11-24T18:59:12.017Z,4.90
2023-11-24T19:02:00.384Z,4.90
2023-11-24T19:04:49.040Z,5.00
2023-11-24T19:07:38.798Z,4.90
2023-11-24T19:10:28.579Z,5.00
2023-11-24T19:13:17.683Z,5.00
2023-11-24T19:16:06.265Z,5.10
2023-11-24T19:18:53.663Z,5.20
2023-11-24T19:21:41.855Z,5.20
2023-11-24T19:24:29.144Z,5.20
2023-11-24T19:27:16.546Z,5.20
2023-11-24T19:30:04.260Z,5.20
2023-11-24T19:32:52.539Z,5.20
2023-11-24T19:35:40.018Z,5.20
2023-11-24T19:38:27.453Z,5.20
2023-11-24T19:41:17.925Z,5.10
2023-11-24T19:44:05.645Z,5.10
2023-11-24T19:46:53.242Z,5.10
2023-11-24T19:49:40.689Z,5.00
2023-11-24T19:52:28.157Z,5.00
2023-11-24T19:55:15.940Z,5.10
2023-11-24T19:58:03.399Z,5.30
2023-11-24T20:00:51.730Z,5.40
2023-11-24T20:03:42.409Z,5.40
2023-11-24T20:06:31.019Z,5.40
2023-11-24T20:09:21.536Z,5.40
2023-11-24T20:12:13.221Z,5.40
2023-11-24T20:15:02.053Z,5.40
2023-11-24T20:17:49.462Z,5.40
2023-11-24T20:20:39.936Z,5.40
2023-11-24T20:23:27.391Z,5.40
2023-11-24T20:26:14.785Z,5.50
2023-11-24T20:29:02.089Z,5.50
2023-11-24T20:31:50.037Z,5.50
2023-11-24T20:34:38.167Z,5.50
2023-11-24T20:37:28.787Z,5.40
2023-11-24T20:40:16.827Z,5.40
2023-11-24T20:43:05.626Z,5.40
2023-11-24T20:45:53.166Z,5.30
2023-11-24T20:48:45.901Z,5.20
2023-11-24T20:51:33.494Z,5.10
2023-11-24T20:54:20.982Z,5.00
2023-11-24T20:57:08.340Z,4.90
2023-11-24T20:59:55.804Z,4.80
2023-11-24T21:02:43.268Z,4.80
2023-11-24T21:05:30.911Z,4.70
2023-11-24T21:08:22.829Z,4.60
2023-11-24T21:11:10.392Z,4.60
2023-11-24T21:13:57.897Z,4.60
2023-11-24T21:16:45.525Z,4.50
2023-11-24T21:19:33.951Z,4.50
2023-11-24T21:22:21.540Z,4.40
2023-11-24T21:25:09.478Z,4.40
2023-11-24T21:27:59.200Z,4.40
2023-11-24T21:30:48.600Z,4.40
2023-11-24T21:33:38.197Z,4.40
2023-11-24T21:36:25.630Z,4.40
2023-11-24T21:39:15.316Z,4.40
2023-11-24T21:42:02.796Z,4.40
2023-11-24T21:44:51.764Z,4.40
2023-11-24T21:47:42.282Z,4.40
2023-11-24T21:50:29.706Z,4.40
2023-11-24T21:53:20.091Z,4.40
2023-11-24T21:56:08.347Z,4.40
2023-11-24T21:58:57.209Z,4.30
2023-11-24T22:01:45.728Z,4.30
2023-11-24T22:04:33.432Z,4.20
2023-11-24T22:07:22.366Z,4.20
2023-11-24T22:10:10.685Z,4.10
2023-11-24T22:12:58.742Z,4.10
2023-11-24T22:15:49.590Z,4.00
2023-11-24T22:18:37.001Z,4.00
2023-11-24T22:21:24.673Z,3.90
2023-11-24T22:24:12.210Z,3.90
2023-11-24T22:27:02.463Z,3.80
2023-11-24T22:29:58.039Z,3.80
2023-11-24T22:32:51.618Z,3.70
2023-11-24T22:35:39.132Z,3.70
2023-11-24T22:38:26.683Z,3.70
2023-11-24T22:41:22.835Z,3.70
2023-11-24T22:44:16.590Z,3.70
2023-11-24T22:47:05.385Z,3.70
2023-11-24T22:49:52.799Z,3.60
2023-11-24T22:52:40.349Z,3.60
2023-11-24T22:55:27.885Z,3.70
2023-11-24T22:58:15.425Z,3.70
2023-11-24T23:01:06.314Z,3.70
2023-11-24T23:03:56.457Z,3.70
2023-11-24T23:06:43.895Z,3.80
2023-11-24T23:09:32.149Z,3.80
2023-11-24T23:12:20.497Z,3.90
2023-11-24T23:15:10.774Z,4.00
2023-11-24T23:17:58.322Z,4.00
2023-11-24T23:20:45.755Z,4.10
2023-11-24T23:23:34.564Z,4.20
2023-11-24T23:26:22.694Z,4.30
2023-11-24T23:29:10.151Z,4.30
2023-11-24T23:31:57.691Z,4.40
2023-11-24T23:34:45.141Z,4.40
2023-11-24T23:37:33.839Z,4.50
2023-11-24T23:40:24.051Z,4.50
2023-11-24T23:43:13.926Z,4.60
2023-11-24T23:46:02.045Z,4.60
2023-11-24T23:48:49.565Z,4.70
2023-11-24T23:51:37.055Z,4.70
2023-11-24T23:54:24.455Z,4.70
2023-11-24T23:57:11.817Z,4.70
2023-11-24T23:59:59.516Z,4.70
